首页
METAR-TAF:

METAR-TAF

机场 :

Muskegon County Airport

Muskegon, 密歇根州, 美国

纬度: 43-10-16N, 经度: 086-14-12W, 海拔: 191米

当前天气观测

该预报发布于10分钟前的01:55 UTC
风速9节,风向北转西北
温度 24°C
湿度 61%
气压 1015 hPa
能見度: 16.1公里
散云层高于13000英尺
多云层高于25000英尺

METAR: KMKG 220155Z 34009KT 10SM SCT130 BKN250 24/16 A2998 RMK AO2 SLP149 T02390156 $

时间: 22:05 (02:05 UTC)

预报

该预报发布于2小时和17分钟前的23:48 UTC
预报有效从22日的 00点(UTC)到 22日的 24点(UTC)
风速7节,风向北转东北
能見度: 10公里
多云层高于25000英尺
从 22日的 0600点(UTC)
风速9节,风向北转东北
能見度: 10公里
多云层高于5000英尺
从 22日的 1500点(UTC)
风速10节,风向,有时为20节阵风
能見度: 10公里
散云层高于5000英尺

TAF: KMKG 212348Z 2200/2224 03007KT P6SM BKN250 FM220600 02009KT P6SM BKN050 FM221500 36010G20KT P6SM SCT050

超过4000个机场的气象观测和天气预报(METAR&TAF报告)。

可查询的气象台以黄色和红色小点在地图上表示。

将鼠标移到小点上方,可查看气象台名称。

然后点击查看天气观测和预报。

如需切换地图:点击带黑十字的绿色按钮放大地图;点击带横线的绿色按钮缩小地图;或者点击绿色箭头查看邻近地区的地图。


METAR-TAF: